Time;durP1;ratioP1;P1;durP2;ratioP2;P2;SDS_P1;SDS_P2;PMS_P1;PMS_P2;Temp;Humidity;BMP_temperature;BMP_pressure;BME280_temperature;BME280_humidity;BME280_pressure;Samples;Min_cycle;Max_cycle;Signal;HPM_P1;HPM_P2
2022/01/16 00:04:34;;;;;;;18.38;10.88;;;6.80;76.20;;;;;;4998548;28;20042;-49
2022/01/16 00:07:03;;;;;;;24.00;11.35;;;6.80;76.10;;;;;;4989662;28;20662;-54
2022/01/16 00:09:35;;;;;;;20.83;12.07;;;6.80;76.10;;;;;;5000620;28;20057;-50
2022/01/16 00:12:05;;;;;;;28.27;11.50;;;6.80;76.10;;;;;;4985346;28;20085;-49
2022/01/16 00:14:33;;;;;;;27.48;11.95;;;6.80;76.00;;;;;;5012265;28;20034;-52
2022/01/16 00:16:59;;;;;;;26.52;12.30;;;6.80;75.90;;;;;;4993399;28;20038;-53
2022/01/16 00:19:26;;;;;;;28.75;11.93;;;6.70;75.90;;;;;;5000216;28;20046;-53
2022/01/16 00:21:53;;;;;;;28.55;10.95;;;6.70;75.90;;;;;;5000078;28;20101;-52
2022/01/16 00:24:20;;;;;;;26.38;11.77;;;6.70;76.00;;;;;;4994723;28;20046;-53
2022/01/16 00:26:47;;;;;;;26.77;10.85;;;6.60;76.00;;;;;;4992240;28;20066;-52
2022/01/16 00:29:14;;;;;;;24.33;11.80;;;6.70;76.10;;;;;;5003074;28;20057;-54
2022/01/16 00:31:41;;;;;;;48.92;12.13;;;6.60;76.10;;;;;;5002046;28;20081;-53
2022/01/16 00:34:12;;;;;;;24.23;11.63;;;6.60;76.20;;;;;;4993907;28;20527;-49
2022/01/16 00:36:39;;;;;;;26.13;12.20;;;6.60;76.10;;;;;;4996348;28;20038;-55
2022/01/16 00:39:06;;;;;;;31.98;12.30;;;6.60;76.20;;;;;;5009777;28;20034;-52
2022/01/16 00:41:35;;;;;;;22.02;11.32;;;6.60;76.20;;;;;;5004567;28;20081;-50
2022/01/16 00:44:02;;;;;;;22.67;11.98;;;6.60;76.20;;;;;;5012740;28;20057;-54
2022/01/16 00:46:29;;;;;;;20.83;11.45;;;6.60;76.30;;;;;;5001597;28;20105;-54
2022/01/16 00:48:56;;;;;;;29.05;12.10;;;6.60;76.40;;;;;;5001041;28;20111;-53
2022/01/16 00:51:23;;;;;;;37.15;11.63;;;6.60;76.40;;;;;;5004001;28;20100;-53
2022/01/16 00:53:51;;;;;;;28.40;12.18;;;6.60;76.30;;;;;;5006600;28;20042;-53
2022/01/16 00:56:17;;;;;;;27.50;11.63;;;6.60;76.30;;;;;;5004184;28;20069;-50
2022/01/16 00:58:49;;;;;;;23.67;9.80;;;6.60;76.40;;;;;;5003130;28;20426;-52
2022/01/16 01:01:16;;;;;;;28.30;12.68;;;6.60;76.40;;;;;;5009379;28;20097;-50
2022/01/16 01:03:43;;;;;;;31.20;12.98;;;6.60;76.40;;;;;;5012634;28;20126;-52
2022/01/16 01:06:10;;;;;;;26.90;13.70;;;6.50;76.40;;;;;;4997647;28;20044;-50
2022/01/16 01:08:37;;;;;;;23.40;12.27;;;6.50;76.50;;;;;;5000591;28;20062;-55
2022/01/16 01:11:12;;;;;;;27.83;13.95;;;6.50;76.50;;;;;;5007177;28;20049;-53
2022/01/16 01:13:57;;;;;;;28.20;13.43;;;6.50;76.50;;;;;;5010911;28;20120;-51
2022/01/16 01:16:25;;;;;;;23.48;13.88;;;6.50;76.40;;;;;;4995511;28;20177;-50
2022/01/16 01:18:51;;;;;;;29.00;14.13;;;6.50;76.40;;;;;;5003876;28;20053;-51
2022/01/16 01:21:28;;;;;;;34.42;14.55;;;6.50;76.40;;;;;;5010756;28;20038;-50
2022/01/16 01:23:59;;;;;;;27.25;14.07;;;6.50;76.40;;;;;;5008089;28;20076;-49
2022/01/16 01:26:32;;;;;;;21.48;13.15;;;6.50;76.30;;;;;;5004499;28;20579;-55
2022/01/16 01:28:59;;;;;;;25.05;14.00;;;6.50;76.30;;;;;;5007084;28;20100;-49
2022/01/16 01:31:27;;;;;;;22.95;13.30;;;6.50;76.20;;;;;;5011622;28;20054;-49
2022/01/16 01:33:54;;;;;;;23.67;14.50;;;6.50;76.80;;;;;;4989228;28;20764;-50
2022/01/16 01:36:21;;;;;;;22.10;12.48;;;6.50;76.10;;;;;;5000471;28;20042;-51
2022/01/16 01:38:48;;;;;;;22.55;13.45;;;6.50;76.10;;;;;;5005075;28;20050;-53
2022/01/16 01:41:14;;;;;;;19.30;13.88;;;6.50;76.00;;;;;;5011123;28;20076;-52
2022/01/16 01:51:46;;;;;;;22.27;12.48;;;6.40;75.90;;;;;;5001640;28;20100;-52
2022/01/16 01:54:14;;;;;;;21.23;12.18;;;6.40;76.00;;;;;;5008301;28;20041;-53
2022/01/16 01:56:41;;;;;;;23.77;13.02;;;6.40;75.90;;;;;;4992695;28;20081;-50
2022/01/16 01:59:08;;;;;;;21.92;12.98;;;6.40;75.80;;;;;;5011877;28;20065;-49
2022/01/16 02:01:36;;;;;;;23.92;13.73;;;6.40;75.80;;;;;;4995004;28;20053;-51
2022/01/16 02:04:03;;;;;;;20.00;12.55;;;6.40;75.70;;;;;;5000108;28;20399;-53
2022/01/16 02:06:32;;;;;;;21.63;12.90;;;6.40;75.70;;;;;;4990614;28;20046;-55
2022/01/16 02:09:03;;;;;;;19.15;12.60;;;6.40;75.80;;;;;;4992231;28;20514;-50
2022/01/16 02:11:31;;;;;;;20.90;13.25;;;6.40;75.70;;;;;;5001947;28;20050;-52
2022/01/16 02:35:45;;;;;;;24.88;14.20;;;6.20;75.60;;;;;;4991175;28;20046;-52
2022/01/16 02:38:12;;;;;;;42.17;15.07;;;6.20;75.60;;;;;;4996347;28;20088;-53
2022/01/16 02:40:44;;;;;;;33.45;15.70;;;6.20;75.50;;;;;;5004188;28;20105;-49
2022/01/16 02:43:11;;;;;;;28.07;14.53;;;6.20;75.50;;;;;;5006826;28;20049;-52
2022/01/16 02:45:44;;;;;;;26.80;14.95;;;6.20;75.60;;;;;;5007469;28;20069;-50
2022/01/16 02:48:12;;;;;;;31.02;15.35;;;6.10;75.60;;;;;;4998094;28;20069;-55
2022/01/16 02:50:39;;;;;;;30.77;16.15;;;6.10;75.70;;;;;;5001992;28;20042;-49
2022/01/16 02:53:10;;;;;;;29.35;16.83;;;6.10;75.60;;;;;;5002485;28;20037;-52
2022/01/16 02:55:43;;;;;;;33.85;18.67;;;6.10;75.60;;;;;;5010224;28;20054;-55
2022/01/16 02:58:10;;;;;;;29.40;17.38;;;6.00;75.60;;;;;;5003816;28;20567;-53
2022/01/16 03:00:37;;;;;;;30.95;19.05;;;6.00;75.80;;;;;;5001615;28;20595;-53
2022/01/16 03:03:04;;;;;;;36.08;18.52;;;6.00;75.90;;;;;;5010601;28;20049;-49
2022/01/16 03:05:33;;;;;;;36.63;19.88;;;6.00;76.00;;;;;;4999478;28;20516;-54
2022/01/16 03:08:00;;;;;;;28.92;17.58;;;6.00;76.10;;;;;;5003785;28;20050;-50
2022/01/16 03:12:56;;;;;;;32.67;17.90;;;6.00;76.40;;;;;;5010066;28;20046;-48
2022/01/16 03:15:24;;;;;;;32.47;18.27;;;6.00;76.40;;;;;;5003105;28;20101;-50
2022/01/16 03:23:15;;;;;;;35.70;20.77;;;6.00;76.40;;;;;;5007641;28;20048;-48
2022/01/16 03:25:42;;;;;;;31.17;19.08;;;6.00;76.40;;;;;;4993755;28;20453;-46
2022/01/16 03:28:09;;;;;;;37.20;20.52;;;6.10;76.40;;;;;;5002304;28;20066;-45
2022/01/16 03:30:36;;;;;;;34.67;20.58;;;6.10;76.30;;;;;;4991951;28;20410;-46
2022/01/16 03:33:03;;;;;;;40.13;22.83;;;6.10;76.40;;;;;;4977759;28;20544;-45
2022/01/16 03:35:30;;;;;;;37.35;21.90;;;6.10;76.40;;;;;;4968421;28;20056;-45
2022/01/16 03:37:58;;;;;;;37.40;21.70;;;6.10;76.40;;;;;;4979141;28;20042;-47
2022/01/16 03:40:25;;;;;;;38.88;22.45;;;6.10;76.40;;;;;;4986766;28;20050;-47
2022/01/16 03:42:53;;;;;;;39.35;21.33;;;6.10;76.30;;;;;;4979108;28;20038;-47
2022/01/16 03:45:20;;;;;;;33.65;20.65;;;6.10;76.30;;;;;;4973935;28;20074;-49
2022/01/16 03:47:48;;;;;;;39.92;22.33;;;6.10;76.30;;;;;;4984292;28;20046;-46
2022/01/16 03:50:14;;;;;;;44.42;24.55;;;6.10;76.40;;;;;;4990385;28;20050;-49
2022/01/16 03:52:41;;;;;;;40.25;23.42;;;6.10;76.40;;;;;;4986979;28;20039;-47
2022/01/16 03:55:08;;;;;;;35.72;22.65;;;6.20;76.50;;;;;;4985533;28;20042;-47
2022/01/16 03:57:36;;;;;;;42.97;23.95;;;6.10;76.50;;;;;;4986015;28;20042;-50
2022/01/16 04:00:06;;;;;;;41.63;25.27;;;6.20;76.60;;;;;;4994322;28;20053;-49
2022/01/16 04:02:32;;;;;;;38.85;22.63;;;6.20;76.60;;;;;;4974419;28;20150;-46
2022/01/16 04:04:59;;;;;;;42.83;24.40;;;6.20;76.60;;;;;;4981044;28;20050;-51
2022/01/16 04:07:31;;;;;;;41.40;24.17;;;6.20;76.70;;;;;;4975675;28;20498;-49
2022/01/16 04:09:58;;;;;;;40.13;23.48;;;6.20;76.70;;;;;;4979838;28;20506;-47
2022/01/16 04:12:25;;;;;;;39.17;22.83;;;6.20;77.20;;;;;;4968731;28;20043;-47
2022/01/16 04:17:23;;;;;;;38.97;23.65;;;6.30;76.50;;;;;;4982026;28;20700;-48
2022/01/16 04:19:51;;;;;;;30.48;18.27;;;6.30;76.50;;;;;;4971153;28;20503;-50
2022/01/16 04:22:19;;;;;;;35.47;22.88;;;6.30;76.50;;;;;;4975806;28;20058;-48
2022/01/16 04:24:47;;;;;;;42.13;25.45;;;6.30;76.50;;;;;;4986468;28;20572;-51
2022/01/16 04:27:14;;;;;;;37.80;24.73;;;6.30;76.50;;;;;;4973045;28;20043;-51
2022/01/16 04:29:44;;;;;;;39.92;23.70;;;6.30;76.40;;;;;;4993355;28;20042;-51
2022/01/16 04:32:12;;;;;;;39.95;24.35;;;6.30;76.50;;;;;;4978864;28;20482;-50
2022/01/16 04:34:39;;;;;;;40.63;26.80;;;6.40;76.50;;;;;;4985961;28;20035;-48
2022/01/16 04:37:07;;;;;;;43.40;25.33;;;6.40;76.40;;;;;;4988444;28;20042;-48
2022/01/16 04:39:36;;;;;;;41.30;25.48;;;6.40;76.30;;;;;;4991272;28;20569;-47
2022/01/16 04:44:52;;;;;;;39.03;23.58;;;6.40;76.40;;;;;;4981727;28;20046;-51
2022/01/16 04:47:19;;;;;;;38.92;25.75;;;6.40;76.40;;;;;;4973046;28;20078;-47
2022/01/16 04:49:46;;;;;;;40.25;25.00;;;6.40;76.40;;;;;;4975034;28;20043;-47
2022/01/16 04:52:13;;;;;;;43.60;25.33;;;6.40;76.40;;;;;;4985308;28;20399;-51
2022/01/16 04:54:40;;;;;;;38.00;24.10;;;6.40;76.40;;;;;;4984173;28;20057;-46
2022/01/16 04:57:06;;;;;;;41.00;24.58;;;6.40;76.40;;;;;;4981982;28;20038;-48
2022/01/16 04:59:33;;;;;;;36.83;24.13;;;6.40;76.50;;;;;;4971353;28;20043;-50
2022/01/16 05:02:03;;;;;;;39.33;25.25;;;6.40;76.50;;;;;;4981345;28;20540;-48
2022/01/16 05:04:30;;;;;;;37.92;24.63;;;6.40;76.60;;;;;;4983502;28;20124;-49
2022/01/16 05:06:59;;;;;;;36.53;24.50;;;6.40;76.60;;;;;;4973086;28;20039;-48
2022/01/16 05:09:25;;;;;;;42.97;24.92;;;6.40;76.60;;;;;;4977557;28;20490;-47
2022/01/16 05:11:56;;;;;;;40.97;25.92;;;6.40;76.60;;;;;;4980605;28;20462;-47
2022/01/16 05:17:09;;;;;;;38.50;24.63;;;6.50;76.70;;;;;;4954519;28;20098;-50
2022/01/16 05:19:37;;;;;;;44.83;25.90;;;6.50;76.70;;;;;;4978192;28;20050;-48
2022/01/16 05:22:04;;;;;;;41.05;25.17;;;6.50;76.70;;;;;;4980840;28;20097;-48
2022/01/16 05:24:35;;;;;;;38.03;25.55;;;6.50;76.70;;;;;;4977291;28;20723;-50
2022/01/16 05:27:02;;;;;;;40.88;25.45;;;6.50;76.70;;;;;;4967358;28;20054;-48
2022/01/16 05:29:28;;;;;;;43.55;26.58;;;6.50;76.70;;;;;;4984130;28;20105;-50
2022/01/16 05:31:56;;;;;;;42.85;26.48;;;6.50;76.70;;;;;;4981605;28;20101;-48
2022/01/16 05:34:25;;;;;;;45.78;27.27;;;6.50;76.70;;;;;;4971108;28;20039;-47
2022/01/16 05:36:52;;;;;;;46.38;28.38;;;6.60;76.70;;;;;;4974979;28;20043;-50
2022/01/16 05:39:21;;;;;;;44.85;28.00;;;6.60;76.70;;;;;;4984655;28;20092;-50
2022/01/16 05:41:48;;;;;;;43.65;28.75;;;6.60;76.80;;;;;;4984688;28;20058;-50
2022/01/16 05:44:15;;;;;;;43.03;27.35;;;6.60;76.80;;;;;;4992718;28;20704;-47
2022/01/16 05:46:44;;;;;;;45.83;28.73;;;6.60;76.70;;;;;;4983899;28;20073;-48
2022/01/16 05:49:11;;;;;;;53.20;29.80;;;6.60;76.70;;;;;;4980352;28;20042;-51
2022/01/16 05:51:37;;;;;;;44.00;27.92;;;6.70;76.80;;;;;;4965420;28;20622;-48
2022/01/16 05:54:04;;;;;;;46.38;29.13;;;6.70;76.80;;;;;;4991970;28;20108;-49
2022/01/16 05:56:31;;;;;;;45.10;28.00;;;6.70;76.80;;;;;;4976460;28;20050;-52
2022/01/16 05:58:58;;;;;;;49.22;30.95;;;6.70;76.80;;;;;;4981550;28;20160;-52
2022/01/16 06:01:24;;;;;;;46.05;29.20;;;6.70;76.80;;;;;;4989165;28;20042;-49
2022/01/16 06:03:51;;;;;;;46.15;28.00;;;6.70;76.80;;;;;;4973579;28;20110;-50
2022/01/16 06:06:18;;;;;;;44.28;29.10;;;6.70;76.80;;;;;;4968553;28;20043;-52
2022/01/16 06:08:45;;;;;;;50.15;30.70;;;6.80;76.80;;;;;;4979888;28;20514;-50
2022/01/16 06:11:13;;;;;;;48.97;29.95;;;6.80;76.80;;;;;;4950466;28;20137;-48
2022/01/16 06:13:42;;;;;;;46.92;28.52;;;6.80;76.80;;;;;;4966488;28;20117;-48
2022/01/16 06:16:09;;;;;;;47.05;30.42;;;6.80;76.80;;;;;;4973871;28;20039;-49
2022/01/16 06:18:36;;;;;;;46.60;30.42;;;6.80;76.70;;;;;;4982961;28;20049;-49
2022/01/16 06:21:07;;;;;;;55.78;31.77;;;6.80;76.70;;;;;;4954883;28;20155;-50
2022/01/16 06:23:34;;;;;;;49.00;30.08;;;6.80;76.60;;;;;;4968117;28;20094;-52
2022/01/16 06:26:01;;;;;;;48.95;30.95;;;6.80;76.60;;;;;;4983554;28;20030;-52
2022/01/16 06:28:29;;;;;;;48.03;31.13;;;6.80;76.70;;;;;;4988351;28;20089;-50
2022/01/16 06:30:56;;;;;;;52.40;32.60;;;6.80;76.70;;;;;;4991396;28;20042;-50
2022/01/16 06:33:24;;;;;;;47.60;31.55;;;6.90;76.70;;;;;;4969918;28;20039;-50
2022/01/16 06:35:51;;;;;;;48.42;31.60;;;6.90;76.70;;;;;;4982558;28;20078;-50
2022/01/16 06:38:17;;;;;;;48.90;30.80;;;6.90;76.70;;;;;;4983475;28;20046;-53
2022/01/16 06:40:44;;;;;;;52.72;31.63;;;6.90;76.80;;;;;;4990808;28;20038;-49
2022/01/16 06:43:11;;;;;;;42.28;29.85;;;6.90;76.70;;;;;;4979874;28;20043;-53
2022/01/16 06:45:38;;;;;;;51.72;30.80;;;6.90;76.70;;;;;;4981571;28;20157;-48
2022/01/16 06:48:04;;;;;;;45.15;30.20;;;6.90;76.80;;;;;;4983206;28;20044;-49
2022/01/16 06:50:31;;;;;;;47.33;31.17;;;6.90;76.80;;;;;;4986083;28;20054;-52
2022/01/16 06:52:58;;;;;;;50.88;32.60;;;6.90;76.80;;;;;;4973768;28;20235;-52
2022/01/16 06:55:25;;;;;;;51.33;33.25;;;6.90;76.80;;;;;;4980684;28;20047;-50
2022/01/16 06:57:51;;;;;;;48.25;30.75;;;7.00;76.80;;;;;;4991218;28;20683;-51
2022/01/16 07:00:18;;;;;;;51.63;33.08;;;7.00;76.80;;;;;;4990819;28;20050;-49
2022/01/16 07:02:45;;;;;;;47.90;31.58;;;6.90;76.70;;;;;;4976015;28;20043;-51
2022/01/16 07:05:12;;;;;;;51.28;31.55;;;7.00;76.80;;;;;;4979520;28;20067;-53
2022/01/16 07:07:38;;;;;;;46.95;31.02;;;7.00;76.80;;;;;;4971369;28;20059;-53
2022/01/16 07:10:05;;;;;;;49.72;31.48;;;7.00;76.80;;;;;;4969740;28;20522;-50
2022/01/16 07:12:35;;;;;;;48.55;31.08;;;7.00;76.80;;;;;;4980265;28;20043;-50
2022/01/16 07:15:02;;;;;;;53.28;31.80;;;7.00;76.80;;;;;;4975249;28;20043;-52
2022/01/16 07:17:31;;;;;;;49.95;31.80;;;7.00;76.80;;;;;;4956226;28;20098;-55
2022/01/16 07:20:00;;;;;;;54.22;32.72;;;7.00;76.80;;;;;;4971425;28;20038;-55
2022/01/16 07:22:27;;;;;;;48.85;30.52;;;7.00;76.80;;;;;;4981576;28;20054;-56
2022/01/16 07:24:54;;;;;;;50.97;32.13;;;7.00;76.80;;;;;;4971924;28;20565;-55
2022/01/16 07:27:21;;;;;;;49.65;30.80;;;7.00;76.80;;;;;;4978664;28;20120;-53
2022/01/16 07:29:47;;;;;;;52.17;32.92;;;7.00;76.80;;;;;;4973792;28;20042;-53
2022/01/16 07:32:14;;;;;;;48.80;32.47;;;7.00;76.80;;;;;;4969903;28;20038;-56
2022/01/16 07:34:41;;;;;;;55.45;33.05;;;7.00;76.80;;;;;;4942458;28;20133;-55
2022/01/16 07:37:08;;;;;;;46.95;29.90;;;7.10;76.80;;;;;;4972240;28;20101;-56
2022/01/16 07:39:37;;;;;;;48.72;31.55;;;7.00;76.80;;;;;;4959213;28;20742;-56
2022/01/16 07:42:05;;;;;;;46.05;31.30;;;7.10;76.80;;;;;;4957715;28;20042;-53
2022/01/16 07:44:32;;;;;;;46.65;30.65;;;7.10;76.80;;;;;;4955293;28;20559;-55
2022/01/16 07:46:59;;;;;;;48.67;30.88;;;7.10;76.90;;;;;;4965204;28;20093;-54
2022/01/16 07:49:25;;;;;;;51.72;31.75;;;7.10;76.90;;;;;;4956282;28;20047;-53
2022/01/16 07:51:52;;;;;;;51.17;32.58;;;7.10;76.90;;;;;;4964217;28;20097;-55
2022/01/16 07:54:19;;;;;;;50.45;32.03;;;7.10;76.90;;;;;;4959103;28;20057;-53
2022/01/16 07:56:46;;;;;;;51.92;32.45;;;7.10;76.80;;;;;;4961031;28;20414;-53
2022/01/16 07:59:13;;;;;;;49.63;33.17;;;7.10;76.70;;;;;;4963461;28;20101;-55
2022/01/16 08:01:40;;;;;;;50.13;31.60;;;7.10;76.70;;;;;;4970671;28;20046;-55
2022/01/16 08:04:09;;;;;;;49.85;32.28;;;7.20;76.70;;;;;;4960175;28;20390;-52
2022/01/16 08:06:35;;;;;;;48.58;30.55;;;7.10;76.70;;;;;;4961398;28;20046;-52
2022/01/16 08:09:02;;;;;;;52.60;32.42;;;7.10;76.70;;;;;;4962861;28;20038;-54
2022/01/16 08:11:29;;;;;;;49.45;31.20;;;7.10;76.70;;;;;;4961028;28;20050;-56
2022/01/16 08:13:56;;;;;;;54.38;31.98;;;7.20;76.70;;;;;;4965896;28;20043;-53
2022/01/16 08:16:23;;;;;;;51.58;31.42;;;7.10;76.60;;;;;;4964956;28;20101;-53
2022/01/16 08:18:52;;;;;;;47.90;31.30;;;7.20;76.70;;;;;;4964281;28;20046;-56
2022/01/16 08:21:19;;;;;;;51.10;31.52;;;7.20;76.70;;;;;;4956347;28;20053;-55
2022/01/16 08:23:45;;;;;;;50.22;32.25;;;7.20;76.70;;;;;;4971843;28;20070;-55
2022/01/16 08:26:12;;;;;;;50.88;32.50;;;7.20;76.60;;;;;;4956484;28;20047;-55
2022/01/16 08:28:39;;;;;;;49.33;31.50;;;7.20;76.50;;;;;;4962224;28;20046;-55
2022/01/16 08:31:06;;;;;;;52.97;31.38;;;7.20;76.60;;;;;;4956237;28;20051;-54
2022/01/16 08:33:33;;;;;;;52.53;31.48;;;7.20;76.60;;;;;;4972076;28;20070;-54
2022/01/16 08:35:59;;;;;;;51.63;31.17;;;7.20;76.60;;;;;;4959171;28;20086;-56
2022/01/16 08:38:27;;;;;;;47.38;29.13;;;7.20;76.60;;;;;;4980661;28;20039;-55
2022/01/16 08:40:57;;;;;;;34.17;21.27;;;7.20;76.70;;;;;;4960083;28;20070;-55
2022/01/16 08:43:24;;;;;;;47.58;29.60;;;7.30;76.70;;;;;;4964066;28;20596;-55
2022/01/16 08:45:51;;;;;;;54.38;31.80;;;7.50;76.70;;;;;;4958226;28;20534;-56
2022/01/16 08:48:20;;;;;;;48.33;30.60;;;7.30;76.50;;;;;;4971347;28;20042;-56
2022/01/16 08:50:47;;;;;;;49.75;29.67;;;7.30;76.50;;;;;;4955475;28;20034;-55
2022/01/16 08:53:14;;;;;;;45.75;29.60;;;7.30;76.50;;;;;;4977207;28;20089;-54
2022/01/16 08:55:41;;;;;;;50.65;28.88;;;7.30;76.50;;;;;;4961791;28;20105;-54
2022/01/16 08:58:08;;;;;;;53.63;31.15;;;7.30;76.60;;;;;;4973511;28;20073;-56
2022/01/16 09:00:35;;;;;;;50.35;30.83;;;7.40;76.50;;;;;;4959479;28;20136;-53
2022/01/16 09:03:02;;;;;;;46.40;29.50;;;7.40;76.50;;;;;;4969744;28;20081;-55
2022/01/16 09:05:29;;;;;;;50.83;30.17;;;7.40;76.40;;;;;;4960877;28;20051;-54
2022/01/16 09:07:56;;;;;;;47.75;29.17;;;7.40;76.30;;;;;;4971649;28;20070;-57
2022/01/16 09:10:23;;;;;;;44.97;29.48;;;7.40;76.30;;;;;;4956727;28;20134;-56
2022/01/16 09:12:49;;;;;;;52.00;29.88;;;7.40;76.30;;;;;;4964205;28;20039;-56
2022/01/16 09:15:16;;;;;;;54.10;29.58;;;7.40;76.30;;;;;;4956955;28;20039;-57
2022/01/16 09:17:43;;;;;;;44.90;28.70;;;7.40;76.30;;;;;;4961324;28;20097;-55
2022/01/16 09:20:13;;;;;;;49.85;30.30;;;7.50;76.40;;;;;;4959518;28;20510;-55
2022/01/16 09:22:43;;;;;;;48.05;28.98;;;7.50;76.40;;;;;;4968671;28;20454;-56
2022/01/16 09:25:14;;;;;;;48.05;30.08;;;7.50;76.40;;;;;;4960284;28;20048;-54
2022/01/16 09:27:41;;;;;;;48.80;30.33;;;7.50;76.40;;;;;;4970688;28;20039;-54
2022/01/16 09:30:09;;;;;;;48.80;29.77;;;7.50;76.40;;;;;;4958254;28;20051;-55
2022/01/16 09:32:37;;;;;;;54.47;29.75;;;7.50;76.40;;;;;;4981442;28;20062;-56
2022/01/16 09:35:05;;;;;;;49.88;29.45;;;7.50;76.40;;;;;;4968144;28;20043;-55
2022/01/16 09:37:32;;;;;;;49.60;29.50;;;7.60;76.40;;;;;;4965964;28;20046;-55
2022/01/16 09:40:00;;;;;;;49.17;29.55;;;7.60;76.40;;;;;;4956203;28;20306;-54
2022/01/16 09:42:28;;;;;;;52.65;32.25;;;7.60;76.40;;;;;;4977465;28;20057;-55
2022/01/16 09:44:55;;;;;;;50.17;31.60;;;7.60;76.30;;;;;;4960910;28;20047;-56
2022/01/16 09:47:22;;;;;;;54.30;31.73;;;7.60;76.40;;;;;;4962736;28;20424;-56
2022/01/16 09:49:49;;;;;;;48.13;30.50;;;7.60;76.40;;;;;;4961565;28;20047;-54
2022/01/16 09:52:17;;;;;;;50.72;29.85;;;7.70;76.40;;;;;;4976176;28;20039;-56
2022/01/16 09:54:44;;;;;;;54.22;33.70;;;7.70;76.40;;;;;;4953068;28;20043;-56
2022/01/16 09:57:12;;;;;;;51.28;30.75;;;7.70;76.40;;;;;;4962576;28;20043;-56
2022/01/16 09:59:39;;;;;;;49.95;30.85;;;7.70;76.40;;;;;;4969750;28;20092;-52
2022/01/16 10:02:06;;;;;;;58.45;32.67;;;7.70;76.40;;;;;;4969889;28;20569;-56
2022/01/16 10:04:35;;;;;;;50.45;31.20;;;7.70;76.30;;;;;;4967289;28;20101;-53
2022/01/16 10:07:05;;;;;;;57.88;32.58;;;7.80;76.40;;;;;;4966309;28;20043;-54
2022/01/16 10:09:36;;;;;;;56.78;30.92;;;7.80;76.40;;;;;;4959968;28;20047;-53
2022/01/16 10:12:21;;;;;;;56.00;32.95;;;7.80;76.30;;;;;;4979174;28;20426;-56
2022/01/16 10:14:51;;;;;;;55.75;33.15;;;7.90;76.30;;;;;;4950372;28;20109;-55
2022/01/16 10:17:25;;;;;;;57.95;32.67;;;7.90;76.20;;;;;;4942608;28;20047;-56
2022/01/16 10:19:59;;;;;;;60.53;33.67;;;7.90;76.30;;;;;;4961488;28;20079;-54
2022/01/16 10:22:38;;;;;;;48.42;30.48;;;7.90;76.20;;;;;;4974918;28;20039;-51
2022/01/16 10:25:06;;;;;;;59.40;31.60;;;8.00;76.10;;;;;;4967892;28;20396;-54
2022/01/16 10:27:39;;;;;;;53.72;30.45;;;8.00;76.20;;;;;;4971132;28;20046;-51
2022/01/16 10:30:09;;;;;;;59.55;31.55;;;8.00;76.10;;;;;;4965367;28;20499;-52
2022/01/16 10:32:38;;;;;;;57.20;32.42;;;8.00;76.20;;;;;;4960037;28;20039;-53
2022/01/16 10:35:21;;;;;;;56.22;31.77;;;8.00;76.20;;;;;;4954000;28;20043;-51
2022/01/16 10:37:53;;;;;;;60.08;32.60;;;8.10;76.00;;;;;;4969670;28;20077;-50
2022/01/16 10:40:32;;;;;;;54.40;31.00;;;8.10;76.10;;;;;;4964799;28;20051;-53
2022/01/16 10:43:05;;;;;;;53.92;31.38;;;8.10;76.00;;;;;;4972092;28;20510;-51
2022/01/16 10:45:33;;;;;;;57.70;31.35;;;8.20;76.00;;;;;;4954584;28;20598;-52
2022/01/16 10:48:02;;;;;;;53.92;32.33;;;8.20;76.00;;;;;;4971512;28;20053;-50
2022/01/16 10:50:35;;;;;;;54.25;31.70;;;8.20;76.00;;;;;;4962391;28;20055;-52
2022/01/16 10:53:05;;;;;;;54.08;31.95;;;8.20;75.80;;;;;;4956603;28;20031;-50
2022/01/16 10:55:40;;;;;;;53.75;32.25;;;8.30;75.80;;;;;;4954895;28;20565;-52
2022/01/16 10:58:15;;;;;;;52.60;30.50;;;8.30;75.70;;;;;;4976941;28;20045;-50
2022/01/16 11:00:51;;;;;;;58.67;31.77;;;8.30;75.60;;;;;;4960512;28;20074;-50
2022/01/16 11:03:20;;;;;;;57.40;31.60;;;8.30;75.40;;;;;;4944170;28;20074;-53
2022/01/16 11:05:49;;;;;;;58.72;31.38;;;8.30;75.40;;;;;;4957403;28;20743;-51
2022/01/16 11:08:18;;;;;;;54.55;30.95;;;8.30;75.40;;;;;;4977858;28;20042;-51
2022/01/16 11:10:46;;;;;;;52.40;30.17;;;8.30;75.30;;;;;;4958542;28;20051;-49
2022/01/16 11:13:15;;;;;;;52.80;30.63;;;8.30;75.40;;;;;;4973315;28;20039;-54
2022/01/16 11:15:50;;;;;;;51.47;28.73;;;8.30;75.30;;;;;;4957859;28;20506;-49
2022/01/16 11:18:20;;;;;;;57.35;29.88;;;8.30;75.30;;;;;;4970632;28;20038;-52
2022/01/16 11:23:31;;;;;;;51.75;28.25;;;8.40;75.20;;;;;;4957468;28;20565;-53
2022/01/16 11:26:06;;;;;;;45.20;26.38;;;8.40;75.10;;;;;;4955193;28;20101;-55
2022/01/16 11:28:34;;;;;;;43.80;26.00;;;8.40;75.00;;;;;;4970671;28;20047;-54
2022/01/16 11:31:06;;;;;;;43.63;26.45;;;8.40;75.00;;;;;;4958596;28;20059;-54
2022/01/16 11:33:36;;;;;;;48.00;27.10;;;8.40;75.00;;;;;;4961357;28;20042;-53
2022/01/16 11:36:09;;;;;;;45.42;25.20;;;8.40;75.10;;;;;;4959218;28;20623;-55
2022/01/16 11:38:49;;;;;;;46.00;27.42;;;8.40;75.10;;;;;;4971661;28;20047;-54
2022/01/16 11:41:30;;;;;;;43.58;24.95;;;8.40;75.20;;;;;;4954322;28;20050;-52
2022/01/16 11:43:57;;;;;;;40.92;23.42;;;8.40;75.30;;;;;;4983755;28;20043;-54
2022/01/16 11:46:32;;;;;;;42.63;24.77;;;8.40;75.30;;;;;;4957128;28;20699;-53
2022/01/16 11:48:59;;;;;;;44.58;26.00;;;8.50;75.20;;;;;;4970990;28;20442;-55
2022/01/16 11:51:34;;;;;;;42.60;25.45;;;8.50;75.20;;;;;;4952480;28;20039;-54
2022/01/16 11:54:19;;;;;;;40.20;25.42;;;8.50;75.10;;;;;;4972801;28;20046;-54
2022/01/16 11:56:46;;;;;;;37.53;23.63;;;8.60;74.50;;;;;;4963600;28;20036;-56
2022/01/16 11:59:35;;;;;;;40.70;24.80;;;8.60;74.90;;;;;;4964377;28;20122;-53
2022/01/16 12:02:07;;;;;;;38.35;22.95;;;8.60;74.60;;;;;;4962578;28;20101;-55
2022/01/16 12:04:34;;;;;;;40.75;24.42;;;8.60;74.40;;;;;;4959248;28;20074;-54
2022/01/16 12:07:17;;;;;;;41.30;24.48;;;8.60;74.20;;;;;;4966776;28;20042;-54
2022/01/16 12:12:16;;;;;;;35.67;22.58;;;8.60;74.20;;;;;;4973352;28;20061;-52
2022/01/16 12:14:59;;;;;;;;;;;8.60;74.40;;;;;;4975198;28;20035;-52
2022/01/16 12:17:45;;;;;;;31.92;20.45;;;8.60;74.40;;;;;;4965107;28;19926;-54
2022/01/16 12:20:15;;;;;;;38.42;21.73;;;8.70;74.20;;;;;;4958660;28;20884;-55
2022/01/16 12:23:08;;;;;;;39.00;23.45;;;8.60;74.00;;;;;;4979583;28;20094;-52
2022/01/16 12:25:50;;;;;;;32.13;20.80;;;8.70;73.70;;;;;;4955593;28;20047;-52
2022/01/16 12:28:22;;;;;;;39.33;23.63;;;8.60;74.00;;;;;;4971423;28;20129;-51
2022/01/16 12:30:56;;;;;;;37.70;23.67;;;8.60;74.00;;;;;;4960323;28;20049;-55
2022/01/16 12:33:36;;;;;;;39.80;23.52;;;8.60;74.10;;;;;;4981444;28;20066;-53
2022/01/16 12:36:11;;;;;;;35.95;22.00;;;8.60;74.10;;;;;;4961166;28;20506;-52
2022/01/16 12:38:47;;;;;;;44.42;24.50;;;8.60;74.20;;;;;;4977505;28;20053;-51
2022/01/16 12:41:38;;;;;;;36.80;22.08;;;8.60;74.20;;;;;;4962728;28;20460;-54
2022/01/16 12:44:14;;;;;;;38.10;23.35;;;8.60;74.20;;;;;;4970391;28;20129;-55
2022/01/16 12:46:52;;;;;;;38.63;21.85;;;8.70;74.50;;;;;;4959827;28;20046;-50
2022/01/16 12:49:23;;;;;;;38.28;21.83;;;8.70;74.50;;;;;;4964038;28;20101;-50
2022/01/16 12:51:53;;;;;;;34.10;20.67;;;8.70;74.40;;;;;;4968809;28;20054;-50
2022/01/16 12:54:22;;;;;;;39.63;22.10;;;8.70;75.10;;;;;;4968336;28;20640;-55
2022/01/16 12:56:57;;;;;;;34.58;22.33;;;8.70;74.40;;;;;;4964099;28;20117;-54
2022/01/16 12:59:42;;;;;;;31.35;20.67;;;8.70;74.30;;;;;;4972102;28;20070;-54
2022/01/16 13:02:08;;;;;;;34.28;21.13;;;8.80;74.20;;;;;;4967581;28;20034;-55
2022/01/16 13:04:38;;;;;;;36.67;20.90;;;8.80;74.30;;;;;;4962962;28;20051;-51
2022/01/16 13:07:25;;;;;;;31.92;20.08;;;8.80;74.20;;;;;;4966373;28;20106;-51
2022/01/16 13:09:53;;;;;;;30.30;20.45;;;8.80;74.20;;;;;;4968082;28;20051;-50
2022/01/16 13:12:22;;;;;;;35.03;19.98;;;8.90;74.10;;;;;;4961325;28;20051;-53
2022/01/16 13:14:48;;;;;;;35.95;20.83;;;8.80;73.90;;;;;;4932668;28;20047;-50
2022/01/16 13:17:15;;;;;;;29.38;19.70;;;8.80;74.00;;;;;;4967225;28;20043;-50
2022/01/16 13:19:59;;;;;;;33.80;20.58;;;8.80;73.90;;;;;;4973152;28;20114;-54
2022/01/16 13:22:28;;;;;;;29.95;19.55;;;8.80;73.70;;;;;;4968524;28;20038;-52
2022/01/16 13:25:06;;;;;;;32.60;19.50;;;8.80;73.70;;;;;;4967701;28;20106;-54
2022/01/16 13:27:37;;;;;;;29.50;19.58;;;8.80;73.80;;;;;;4978433;28;20414;-50
2022/01/16 13:30:23;;;;;;;33.77;20.23;;;8.80;73.90;;;;;;4950289;28;20092;-52
2022/01/16 13:32:50;;;;;;;32.10;20.35;;;8.70;73.80;;;;;;4960435;28;20282;-51
2022/01/16 13:35:24;;;;;;;31.45;19.90;;;8.70;73.90;;;;;;4954037;28;20101;-56
2022/01/16 13:37:54;;;;;;;34.08;21.15;;;8.70;73.90;;;;;;4969664;28;20102;-51
2022/01/16 13:40:25;;;;;;;34.17;20.30;;;8.70;74.10;;;;;;4960688;28;20098;-53
2022/01/16 13:45:27;;;;;;;32.72;19.77;;;8.60;74.10;;;;;;4940336;28;20076;-53